Time;durP1;ratioP1;P1;durP2;ratioP2;P2;SDS_P1;SDS_P2;PMS_P1;PMS_P2;Temp;Humidity;BMP_temperature;BMP_pressure;BME280_temperature;BME280_humidity;BME280_pressure;Samples;Min_cycle;Max_cycle;Signal;HPM_P1;HPM_P2
2024/03/27 00:02:24;;;;;;;;;;;;;;;12.33;55.75;99358.56;5062084;28;19925;-90
2024/03/27 00:04:50;;;;;;;;;;;;;;;12.31;55.82;99344.63;5061981;28;20365;-91
2024/03/27 00:07:15;;;;;;;;;;;;;;;12.30;55.82;99343.03;5060542;28;19920;-90
2024/03/27 00:09:40;;;;;;;;;;;;;;;12.30;55.77;99344.91;5063584;28;19964;-89
2024/03/27 00:12:05;;;;;;;;;;;;;;;12.27;55.74;99338.25;5056068;28;20462;-90
2024/03/27 00:14:31;;;;;;;;;;;;;;;12.32;55.44;99332.78;5059849;28;19940;-89
2024/03/27 00:16:56;;;;;;;;;;;;;;;12.28;55.19;99342.53;5059235;28;19966;-89
2024/03/27 00:19:21;;;;;;;;;;;;;;;12.27;55.08;99335.56;5060523;28;19955;-89
2024/03/27 00:21:46;;;;;;;;;;;;;;;12.24;55.04;99336.16;5065342;28;19962;-90
2024/03/27 00:24:11;;;;;;;;;;;;;;;12.24;55.37;99332.69;5060538;28;19964;-90
2024/03/27 00:26:37;;;;;;;;;;;;;;;12.23;54.97;99333.78;5060017;28;19927;-89
2024/03/27 00:29:02;;;;;;;;;;;;;;;12.22;55.31;99341.03;5060278;28;19917;-89
2024/03/27 00:31:28;;;;;;;;;;;;;;;12.19;55.02;99333.53;5060528;28;19927;-90
2024/03/27 00:33:54;;;;;;;;;;;;;;;12.17;55.09;99330.34;5062189;28;19965;-90
2024/03/27 00:36:19;;;;;;;;;;;;;;;12.14;55.02;99332.81;5059847;28;19920;-90
2024/03/27 00:38:44;;;;;;;;;;;;;;;12.10;55.10;99327.25;5063445;28;19962;-89
2024/03/27 00:41:09;;;;;;;;;;;;;;;12.07;55.08;99325.16;5059780;28;20399;-89
2024/03/27 00:43:35;;;;;;;;;;;;;;;12.05;55.13;99330.81;5061746;28;19921;-89
2024/03/27 00:46:06;;;;;;;;;;;;;;;12.03;55.42;99324.94;5060074;28;19927;-90
2024/03/27 00:48:32;;;;;;;;;;;;;;;12.02;55.23;99323.31;5058880;28;19982;-89
2024/03/27 00:50:57;;;;;;;;;;;;;;;12.01;55.21;99326.31;5060957;28;20872;-89
2024/03/27 00:53:23;;;;;;;;;;;;;;;12.00;55.18;99327.41;5060689;28;19961;-88
2024/03/27 00:55:57;;;;;;;;;;;;;;;11.97;55.17;99320.72;5059999;28;20003;-89
2024/03/27 00:58:23;;;;;;;;;;;;;;;11.97;55.32;99322.63;5058621;28;19913;-89
2024/03/27 01:00:48;;;;;;;;;;;;;;;11.97;55.50;99317.25;5063243;28;21128;-90
2024/03/27 01:03:14;;;;;;;;;;;;;;;11.97;55.41;99311.88;5058281;28;20802;-90
2024/03/27 01:05:40;;;;;;;;;;;;;;;11.95;55.23;99324.78;5058360;28;19931;-90
2024/03/27 01:08:05;;;;;;;;;;;;;;;11.90;55.17;99304.19;5057563;28;19932;-89
2024/03/27 01:10:30;;;;;;;;;;;;;;;11.87;55.22;99304.78;5061482;28;19956;-89
2024/03/27 01:12:55;;;;;;;;;;;;;;;11.84;55.50;99307.22;5062756;28;19921;-89
2024/03/27 01:15:22;;;;;;;;;;;;;;;11.81;55.36;99303.25;5059784;28;20015;-89
2024/03/27 01:17:47;;;;;;;;;;;;;;;11.79;55.63;99300.88;5062601;28;19939;-90
2024/03/27 01:20:12;;;;;;;;;;;;;;;11.79;55.63;99303.53;5059870;28;20364;-89
2024/03/27 01:22:38;;;;;;;;;;;;;;;11.77;55.66;99302.22;5060483;28;19917;-91
2024/03/27 01:25:05;;;;;;;;;;;;;;;11.75;55.56;99296.34;5059779;28;19978;-90
2024/03/27 01:27:31;;;;;;;;;;;;;;;11.74;55.29;99294.75;5061026;28;19920;-90
2024/03/27 01:29:56;;;;;;;;;;;;;;;11.72;55.67;99297.72;5059008;28;19963;-90
2024/03/27 01:32:21;;;;;;;;;;;;;;;11.71;55.43;99288.09;5058771;28;19925;-89
2024/03/27 01:34:46;;;;;;;;;;;;;;;11.69;55.42;99292.16;5060273;28;20361;-89
2024/03/27 01:37:11;;;;;;;;;;;;;;;11.67;55.66;99281.72;5059824;28;20404;-89
2024/03/27 01:39:37;;;;;;;;;;;;;;;11.66;55.55;99282.78;5059937;28;20916;-90
2024/03/27 01:42:02;;;;;;;;;;;;;;;11.64;55.38;99282.25;5056575;28;20301;-89
2024/03/27 01:44:27;;;;;;;;;;;;;;;11.64;55.56;99273.41;5060327;28;19943;-88
2024/03/27 01:46:53;;;;;;;;;;;;;;;11.57;55.41;99271.13;5055936;28;19917;-89
2024/03/27 01:49:19;;;;;;;;;;;;;;;11.56;55.73;99276.78;5057970;28;19995;-90
2024/03/27 01:51:44;;;;;;;;;;;;;;;11.53;55.97;99272.78;5059951;28;19993;-89
2024/03/27 01:54:11;;;;;;;;;;;;;;;11.50;55.66;99274.16;5059155;28;19967;-90
2024/03/27 01:56:37;;;;;;;;;;;;;;;11.48;55.65;99280.88;5061369;28;19913;-89
2024/03/27 01:59:03;;;;;;;;;;;;;;;11.44;55.61;99274.50;5056384;28;19923;-90
2024/03/27 02:01:29;;;;;;;;;;;;;;;11.41;55.69;99269.72;5060799;28;19940;-90
2024/03/27 02:03:54;;;;;;;;;;;;;;;11.39;55.67;99267.34;5059483;28;20000;-90
2024/03/27 02:06:19;;;;;;;;;;;;;;;11.37;55.83;99272.19;5058094;28;19975;-90
2024/03/27 02:08:45;;;;;;;;;;;;;;;11.36;55.63;99264.44;5057640;28;19913;-89
2024/03/27 02:11:10;;;;;;;;;;;;;;;11.36;55.97;99262.56;5058018;28;19925;-89
2024/03/27 02:13:35;;;;;;;;;;;;;;;11.36;55.62;99256.41;5061308;28;19998;-90
2024/03/27 02:16:01;;;;;;;;;;;;;;;11.34;55.74;99259.38;5062503;28;19920;-89
2024/03/27 02:18:26;;;;;;;;;;;;;;;11.31;55.66;99264.50;5058597;28;19913;-90
2024/03/27 02:20:52;;;;;;;;;;;;;;;11.30;55.87;99261.00;5059758;28;19921;-90
2024/03/27 02:23:19;;;;;;;;;;;;;;;11.29;55.83;99264.78;5058319;28;19966;-89
2024/03/27 02:26:01;;;;;;;;;;;;;;;11.25;55.73;99254.94;5056332;28;20511;-89
2024/03/27 02:28:27;;;;;;;;;;;;;;;11.19;56.24;99255.00;5055607;28;20311;-90
2024/03/27 02:30:52;;;;;;;;;;;;;;;11.19;55.95;99260.38;5056385;28;20007;-89
2024/03/27 02:33:17;;;;;;;;;;;;;;;11.18;55.91;99260.66;5056959;28;20015;-89
2024/03/27 02:35:42;;;;;;;;;;;;;;;11.14;56.04;99265.00;5058212;28;19926;-90
2024/03/27 02:38:08;;;;;;;;;;;;;;;11.10;55.91;99259.41;5057802;28;19923;-89
2024/03/27 02:40:33;;;;;;;;;;;;;;;11.07;55.89;99265.34;5058570;28;20543;-91
2024/03/27 02:42:58;;;;;;;;;;;;;;;11.04;56.25;99260.56;5059515;28;20305;-91
2024/03/27 02:45:23;;;;;;;;;;;;;;;11.03;56.26;99256.28;5058160;28;20324;-89
2024/03/27 02:47:48;;;;;;;;;;;;;;;11.02;56.21;99254.69;5057254;28;20393;-89
2024/03/27 02:50:14;;;;;;;;;;;;;;;11.00;56.15;99258.75;5057422;28;19917;-89
2024/03/27 02:52:39;;;;;;;;;;;;;;;10.98;56.25;99256.34;5058137;28;19972;-88
2024/03/27 02:55:04;;;;;;;;;;;;;;;10.96;56.12;99255.84;5063803;28;19924;-89
2024/03/27 02:57:30;;;;;;;;;;;;;;;10.92;56.29;99252.13;5059006;28;20616;-89
2024/03/27 02:59:55;;;;;;;;;;;;;;;10.90;56.28;99252.41;5058207;28;19924;-89
2024/03/27 03:02:20;;;;;;;;;;;;;;;10.89;56.55;99250.00;5060076;28;19929;-89
2024/03/27 03:04:45;;;;;;;;;;;;;;;10.87;56.29;99244.94;5057848;28;19925;-89
2024/03/27 03:07:10;;;;;;;;;;;;;;;10.86;56.64;99247.91;5060761;28;19916;-89
2024/03/27 03:09:36;;;;;;;;;;;;;;;10.84;56.24;99244.72;5057473;28;19916;-89
2024/03/27 03:12:01;;;;;;;;;;;;;;;10.83;56.48;99241.25;5058958;28;19966;-89
2024/03/27 03:14:27;;;;;;;;;;;;;;;10.82;56.61;99238.84;5059293;28;19916;-90
2024/03/27 03:16:52;;;;;;;;;;;;;;;10.82;56.70;99236.19;5058588;28;19921;-90
2024/03/27 03:19:17;;;;;;;;;;;;;;;10.79;56.59;99237.56;5058455;28;19942;-88
2024/03/27 03:21:42;;;;;;;;;;;;;;;10.77;56.78;99228.19;5061107;28;19940;-89
2024/03/27 03:24:08;;;;;;;;;;;;;;;10.73;56.72;99227.16;5057937;28;19928;-89
2024/03/27 03:26:34;;;;;;;;;;;;;;;10.72;56.83;99230.94;5061090;28;20383;-89
2024/03/27 03:28:59;;;;;;;;;;;;;;;10.70;56.59;99222.38;5056560;28;19921;-90
2024/03/27 03:31:24;;;;;;;;;;;;;;;10.67;56.83;99223.75;5061502;28;19928;-89
2024/03/27 03:33:50;;;;;;;;;;;;;;;10.66;56.63;99230.19;5060169;28;19924;-90
2024/03/27 03:36:15;;;;;;;;;;;;;;;10.62;56.67;99215.78;5059923;28;19939;-89
2024/03/27 03:38:41;;;;;;;;;;;;;;;10.63;56.88;99224.63;5057630;28;19916;-89
2024/03/27 03:41:10;;;;;;;;;;;;;;;10.60;57.22;99215.28;5057737;28;20066;-89
2024/03/27 03:43:35;;;;;;;;;;;;;;;10.59;56.85;99216.31;5058511;28;19950;-90
2024/03/27 03:46:00;;;;;;;;;;;;;;;10.56;56.84;99216.91;5057346;28;20509;-89
2024/03/27 03:48:26;;;;;;;;;;;;;;;10.53;56.92;99212.13;5058654;28;19916;-89
2024/03/27 03:50:51;;;;;;;;;;;;;;;10.51;57.20;99209.72;5057307;28;19962;-89
2024/03/27 03:53:16;;;;;;;;;;;;;;;10.49;57.29;99201.19;5058312;28;19921;-90
2024/03/27 03:55:42;;;;;;;;;;;;;;;10.48;57.17;99204.94;5055973;28;19916;-89
2024/03/27 03:58:07;;;;;;;;;;;;;;;10.47;57.34;99198.00;5058797;28;19917;-89
2024/03/27 04:00:32;;;;;;;;;;;;;;;10.47;57.11;99195.31;5057384;28;19927;-89
2024/03/27 04:02:57;;;;;;;;;;;;;;;10.46;57.19;99196.41;5060068;28;19931;-89
2024/03/27 04:05:22;;;;;;;;;;;;;;;10.45;57.05;99194.00;5058260;28;20254;-89
2024/03/27 04:07:48;;;;;;;;;;;;;;;10.45;57.13;99188.66;5060111;28;20392;-90
2024/03/27 04:10:13;;;;;;;;;;;;;;;10.42;57.56;99183.88;5059086;28;20052;-89
2024/03/27 04:12:38;;;;;;;;;;;;;;;10.40;57.50;99178.78;5057726;28;19952;-88
2024/03/27 04:15:05;;;;;;;;;;;;;;;10.38;57.33;99180.94;5057261;28;20641;-89
2024/03/27 04:17:30;;;;;;;;;;;;;;;10.36;57.49;99168.94;5060609;28;19933;-89
2024/03/27 04:19:58;;;;;;;;;;;;;;;10.35;57.60;99167.34;5059666;28;19920;-89
2024/03/27 04:22:23;;;;;;;;;;;;;;;10.32;57.44;99152.66;5061334;28;19916;-89
2024/03/27 04:24:48;;;;;;;;;;;;;;;10.32;57.56;99146.50;5059475;28;20278;-90
2024/03/27 04:27:13;;;;;;;;;;;;;;;10.30;57.61;99144.09;5060287;28;20003;-89
2024/03/27 04:29:39;;;;;;;;;;;;;;;10.29;57.64;99135.28;5062133;28;20825;-89
2024/03/27 04:32:04;;;;;;;;;;;;;;;10.31;57.84;99135.00;5060390;28;19987;-90
2024/03/27 04:34:29;;;;;;;;;;;;;;;10.31;57.78;99129.63;5062731;28;20645;-89
2024/03/27 04:36:55;;;;;;;;;;;;;;;10.30;57.59;99122.69;5061974;28;20435;-90
2024/03/27 04:39:20;;;;;;;;;;;;;;;10.31;57.71;99129.63;5059559;28;20420;-89
2024/03/27 04:41:45;;;;;;;;;;;;;;;10.29;57.95;99123.78;5062580;28;20438;-89
2024/03/27 04:44:11;;;;;;;;;;;;;;;10.29;57.83;99119.22;5058647;28;19983;-89
2024/03/27 04:46:36;;;;;;;;;;;;;;;10.32;57.71;99123.19;5059521;28;20006;-89
2024/03/27 04:49:01;;;;;;;;;;;;;;;10.33;57.91;99121.31;5060634;28;19952;-90
2024/03/27 04:51:26;;;;;;;;;;;;;;;10.34;57.76;99126.38;5060343;28;19956;-89
2024/03/27 04:53:52;;;;;;;;;;;;;;;10.34;57.94;99126.38;5059231;28;19931;-89
2024/03/27 04:56:17;;;;;;;;;;;;;;;10.35;57.71;99119.16;5059847;28;20003;-90
2024/03/27 04:58:42;;;;;;;;;;;;;;;10.34;57.74;99121.03;5061727;28;20291;-89
2024/03/27 05:01:07;;;;;;;;;;;;;;;10.35;57.96;99114.59;5060061;28;19986;-90
2024/03/27 05:03:33;;;;;;;;;;;;;;;10.37;57.81;99108.94;5060281;28;19921;-90
2024/03/27 05:05:58;;;;;;;;;;;;;;;10.36;58.06;99108.16;5061288;28;19920;-90
2024/03/27 05:08:23;;;;;;;;;;;;;;;10.38;57.71;99106.00;5059138;28;20349;-89
2024/03/27 05:10:48;;;;;;;;;;;;;;;10.39;58.10;99104.91;5062409;28;19933;-91
2024/03/27 05:13:13;;;;;;;;;;;;;;;10.38;57.80;99102.50;5061144;28;19970;-89
2024/03/27 05:15:39;;;;;;;;;;;;;;;10.40;57.88;99095.78;5061259;28;20881;-90
2024/03/27 05:18:05;;;;;;;;;;;;;;;10.39;57.98;99096.88;5060087;28;19998;-90
2024/03/27 05:20:30;;;;;;;;;;;;;;;10.43;58.18;99102.47;5060555;28;19916;-90
2024/03/27 05:22:55;;;;;;;;;;;;;;;10.42;58.17;99108.91;5059447;28;19944;-90
2024/03/27 05:25:20;;;;;;;;;;;;;;;10.43;58.01;99099.78;5057399;28;19968;-90
2024/03/27 05:27:46;;;;;;;;;;;;;;;10.42;57.77;99107.03;5057827;28;19924;-90
2024/03/27 05:30:11;;;;;;;;;;;;;;;10.42;57.68;99117.75;5058823;28;19925;-88
2024/03/27 05:32:36;;;;;;;;;;;;;;;10.41;57.81;99105.44;5060314;28;19916;-90
2024/03/27 05:35:02;;;;;;;;;;;;;;;10.41;57.60;99109.97;5061752;28;19924;-90
2024/03/27 05:37:28;;;;;;;;;;;;;;;10.41;57.96;99104.63;5062696;28;19917;-91
2024/03/27 05:39:53;;;;;;;;;;;;;;;10.44;58.00;99096.03;5063434;28;19921;-90
2024/03/27 05:42:18;;;;;;;;;;;;;;;10.47;58.38;99095.44;5062872;28;20013;-90
2024/03/27 05:44:43;;;;;;;;;;;;;;;10.50;58.20;99095.66;5069682;28;19966;-90
2024/03/27 05:47:09;;;;;;;;;;;;;;;10.54;58.26;99090.53;5060723;28;19970;-89
2024/03/27 05:49:34;;;;;;;;;;;;;;;10.62;58.21;99089.09;5065601;28;20532;-90
2024/03/27 05:51:59;;;;;;;;;;;;;;;10.65;58.10;99091.19;5068916;28;19921;-89
2024/03/27 05:54:24;;;;;;;;;;;;;;;10.69;58.20;99093.00;5064787;28;20015;-90
2024/03/27 05:56:50;;;;;;;;;;;;;;;10.73;58.24;99095.91;5066488;28;20672;-89
2024/03/27 05:59:15;;;;;;;;;;;;;;;10.77;58.36;99094.22;5064185;28;19924;-90
2024/03/27 06:01:40;;;;;;;;;;;;;;;10.81;58.25;99096.06;5065760;28;19970;-90
2024/03/27 06:04:05;;;;;;;;;;;;;;;10.86;58.26;99084.47;5062056;28;19917;-89
2024/03/27 06:06:31;;;;;;;;;;;;;;;10.91;58.25;99076.34;5064361;28;19927;-89
2024/03/27 06:08:56;;;;;;;;;;;;;;;10.97;58.12;99080.56;5060371;28;19923;-88
2024/03/27 06:11:21;;;;;;;;;;;;;;;11.00;58.04;99065.78;5068588;28;19924;-90
2024/03/27 06:13:48;;;;;;;;;;;;;;;11.05;57.98;99047.72;5066430;28;20284;-96
2024/03/27 06:16:14;;;;;;;;;;;;;;;11.09;57.97;99048.75;5061940;28;19920;-91
2024/03/27 06:18:39;;;;;;;;;;;;;;;11.12;58.06;99037.44;5065316;28;19978;-90
2024/03/27 06:21:04;;;;;;;;;;;;;;;11.18;57.95;99040.84;5061625;28;19947;-90
2024/03/27 06:23:30;;;;;;;;;;;;;;;11.24;57.79;99044.22;5064296;28;19943;-89
2024/03/27 06:25:55;;;;;;;;;;;;;;;11.30;57.52;99049.19;5068225;28;20109;-89
2024/03/27 06:28:21;;;;;;;;;;;;;;;11.34;57.49;99052.09;5059910;28;19952;-90
2024/03/27 06:30:46;;;;;;;;;;;;;;;11.39;57.51;99068.09;5062995;28;20277;-90
2024/03/27 06:33:11;;;;;;;;;;;;;;;11.42;57.31;99076.34;5060717;28;19917;-90
2024/03/27 06:35:36;;;;;;;;;;;;;;;11.46;57.49;99082.72;5065091;28;20021;-91
2024/03/27 06:38:02;;;;;;;;;;;;;;;11.50;56.69;99097.16;5058021;28;19917;-91
2024/03/27 06:40:27;;;;;;;;;;;;;;;11.54;56.95;99089.31;5058222;28;19916;-89
2024/03/27 06:42:52;;;;;;;;;;;;;;;11.58;57.08;99089.50;5066003;28;19920;-89
2024/03/27 06:45:17;;;;;;;;;;;;;;;11.63;56.96;99089.41;5066166;28;20540;-89
2024/03/27 06:47:43;;;;;;;;;;;;;;;11.69;56.96;99090.94;5064350;28;20328;-91
2024/03/27 06:50:08;;;;;;;;;;;;;;;11.77;56.59;99091.03;5065208;28;19943;-90
2024/03/27 06:52:33;;;;;;;;;;;;;;;11.87;56.63;99073.19;5066618;28;20439;-90
2024/03/27 06:54:59;;;;;;;;;;;;;;;11.95;56.48;99070.59;5060508;28;20385;-88
2024/03/27 06:57:24;;;;;;;;;;;;;;;12.06;56.46;99080.06;5063063;28;19924;-91
2024/03/27 06:59:49;;;;;;;;;;;;;;;12.17;56.23;99072.59;5061222;28;19988;-91
2024/03/27 07:02:14;;;;;;;;;;;;;;;12.27;56.40;99069.72;5069054;28;20467;-89
2024/03/27 07:04:42;;;;;;;;;;;;;;;12.41;56.47;99067.03;5065155;28;19920;-90
2024/03/27 07:07:07;;;;;;;;;;;;;;;12.55;56.31;99065.09;5066166;28;19995;-91
2024/03/27 07:09:32;;;;;;;;;;;;;;;12.72;56.33;99072.50;5067862;28;20015;-91
2024/03/27 07:11:57;;;;;;;;;;;;;;;12.81;55.84;99061.84;5067370;28;19950;-91
2024/03/27 07:14:23;;;;;;;;;;;;;;;12.90;56.09;99062.72;5063479;28;19973;-91
2024/03/27 07:16:48;;;;;;;;;;;;;;;13.02;55.96;99057.59;5068118;28;20398;-91
2024/03/27 07:19:13;;;;;;;;;;;;;;;13.08;55.88;99050.19;5062685;28;20378;-90
2024/03/27 07:21:38;;;;;;;;;;;;;;;13.15;55.68;99059.44;5062192;28;19920;-91
2024/03/27 07:24:04;;;;;;;;;;;;;;;13.22;55.71;99056.34;5073385;28;19929;-89
2024/03/27 07:26:30;;;;;;;;;;;;;;;13.29;55.89;99060.22;5066075;28;19927;-90
2024/03/27 07:28:55;;;;;;;;;;;;;;;13.33;55.78;99055.00;5065436;28;19962;-89
2024/03/27 07:31:21;;;;;;;;;;;;;;;13.41;55.78;99061.53;5060343;28;19920;-89
2024/03/27 07:33:46;;;;;;;;;;;;;;;13.49;55.83;99052.72;5065322;28;19916;-89
2024/03/27 07:36:12;;;;;;;;;;;;;;;13.57;55.85;99055.44;5066589;28;19917;-89
2024/03/27 07:38:37;;;;;;;;;;;;;;;13.64;55.62;99065.75;5066044;28;20015;-89
2024/03/27 07:41:02;;;;;;;;;;;;;;;13.70;55.52;99074.53;5065438;28;20388;-88
2024/03/27 07:43:27;;;;;;;;;;;;;;;13.73;55.71;99065.81;5068436;28;19971;-88
2024/03/27 07:45:53;;;;;;;;;;;;;;;13.76;55.30;99073.28;5068811;28;19995;-90
2024/03/27 07:48:18;;;;;;;;;;;;;;;13.77;55.73;99048.72;5057245;28;20043;-89
2024/03/27 07:50:43;;;;;;;;;;;;;;;13.84;55.77;99059.06;5063132;28;19912;-89
2024/03/27 07:53:08;;;;;;;;;;;;;;;13.89;55.55;99061.63;5066138;28;19917;-89
2024/03/27 07:55:34;;;;;;;;;;;;;;;13.97;55.82;99060.06;5063669;28;20365;-89
2024/03/27 07:57:59;;;;;;;;;;;;;;;14.01;55.48;99064.53;5063965;28;20422;-88
2024/03/27 08:00:24;;;;;;;;;;;;;;;14.05;55.52;99054.72;5070288;28;19924;-90
2024/03/27 08:02:50;;;;;;;;;;;;;;;14.10;55.37;99046.50;5065919;28;19923;-90
2024/03/27 08:05:16;;;;;;;;;;;;;;;14.15;55.43;99049.03;5066678;28;19928;-89
2024/03/27 08:07:42;;;;;;;;;;;;;;;14.23;55.63;99046.69;5073562;28;19936;-89
2024/03/27 08:10:07;;;;;;;;;;;;;;;14.30;55.17;99055.88;5072910;28;20042;-88
2024/03/27 08:12:32;;;;;;;;;;;;;;;14.38;55.08;99048.94;5070239;28;19938;-87
2024/03/27 08:14:58;;;;;;;;;;;;;;;14.47;55.35;99047.06;5069630;28;19913;-89
2024/03/27 08:17:23;;;;;;;;;;;;;;;14.51;55.30;99048.81;5065498;28;20098;-88
2024/03/27 08:19:48;;;;;;;;;;;;;;;14.61;55.50;99050.44;5068011;28;20269;-89
2024/03/27 08:22:13;;;;;;;;;;;;;;;14.73;55.33;99056.00;5072070;28;19969;-89
2024/03/27 08:24:38;;;;;;;;;;;;;;;14.85;55.37;99049.16;5062672;28;19966;-89
2024/03/27 08:27:04;;;;;;;;;;;;;;;14.97;55.74;99042.03;5062566;28;19917;-90
2024/03/27 08:29:30;;;;;;;;;;;;;;;15.08;55.53;99047.88;5075591;28;19920;-90
2024/03/27 08:31:55;;;;;;;;;;;;;;;15.20;55.25;99037.25;5059978;28;20047;-89
2024/03/27 08:34:20;;;;;;;;;;;;;;;15.32;55.04;99048.19;5069347;28;19917;-89
2024/03/27 08:36:46;;;;;;;;;;;;;;;15.38;54.57;99038.78;5063414;28;19913;-89
2024/03/27 08:39:11;;;;;;;;;;;;;;;15.42;54.51;99041.63;5060711;28;19923;-89
2024/03/27 08:41:36;;;;;;;;;;;;;;;15.50;54.41;99034.66;5069229;28;19916;-89
2024/03/27 08:44:03;;;;;;;;;;;;;;;15.59;54.71;99025.44;5062721;28;19927;-89
2024/03/27 08:46:28;;;;;;;;;;;;;;;15.63;53.83;99026.38;5059506;28;19959;-89
2024/03/27 08:48:53;;;;;;;;;;;;;;;15.68;54.70;99030.81;5064444;28;19948;-89
2024/03/27 08:51:18;;;;;;;;;;;;;;;15.78;54.87;99019.63;5064508;28;20387;-90
2024/03/27 08:53:46;;;;;;;;;;;;;;;15.92;54.20;99022.91;5067584;28;19938;-90
2024/03/27 08:56:11;;;;;;;;;;;;;;;16.07;54.46;99018.88;5079337;28;19921;-89
2024/03/27 08:58:37;;;;;;;;;;;;;;;16.23;54.68;99024.50;5065793;28;19970;-89
2024/03/27 09:01:02;;;;;;;;;;;;;;;16.41;54.30;99030.59;5062354;28;19970;-90
2024/03/27 09:03:27;;;;;;;;;;;;;;;16.57;53.76;99032.41;5066601;28;19917;-89
2024/03/27 09:05:52;;;;;;;;;;;;;;;16.73;53.64;99031.84;5062104;28;20337;-90
2024/03/27 09:08:18;;;;;;;;;;;;;;;16.88;53.39;99031.25;5063436;28;19942;-89
2024/03/27 09:10:43;;;;;;;;;;;;;;;17.03;53.10;99038.72;5067985;28;19956;-90
2024/03/27 09:13:08;;;;;;;;;;;;;;;17.20;53.13;99038.56;5060645;28;20389;-91
2024/03/27 09:15:33;;;;;;;;;;;;;;;17.35;52.68;99033.66;5064559;28;19960;-90
2024/03/27 09:17:58;;;;;;;;;;;;;;;17.45;52.33;99033.25;5065613;28;19959;-88
2024/03/27 09:20:24;;;;;;;;;;;;;;;17.57;51.99;99035.97;5066023;28;19916;-90
2024/03/27 09:22:49;;;;;;;;;;;;;;;17.67;51.42;99035.53;5060749;28;20472;-90
2024/03/27 09:25:14;;;;;;;;;;;;;;;17.79;51.48;99035.59;5066992;28;20425;-89
2024/03/27 09:27:39;;;;;;;;;;;;;;;17.95;51.30;99037.63;5064601;28;19998;-89
2024/03/27 09:30:05;;;;;;;;;;;;;;;18.10;51.19;99031.53;5072852;28;19986;-89
2024/03/27 09:32:30;;;;;;;;;;;;;;;18.25;50.61;99028.13;5065779;28;19992;-90
2024/03/27 09:34:55;;;;;;;;;;;;;;;18.39;51.04;99025.06;5068557;28;19948;-89
2024/03/27 09:37:21;;;;;;;;;;;;;;;18.52;51.39;99015.78;5062983;28;19967;-90
2024/03/27 09:39:46;;;;;;;;;;;;;;;18.69;50.04;99010.13;5063817;28;20340;-90
2024/03/27 09:42:12;;;;;;;;;;;;;;;18.84;50.12;99016.72;5058310;28;19921;-89
2024/03/27 09:44:37;;;;;;;;;;;;;;;18.94;49.49;99005.38;5066076;28;20142;-90
2024/03/27 09:47:04;;;;;;;;;;;;;;;19.05;49.79;98999.47;5067464;28;19922;-88
2024/03/27 09:49:29;;;;;;;;;;;;;;;19.14;48.66;99005.53;5068349;28;20003;-89
2024/03/27 09:51:57;;;;;;;;;;;;;;;19.19;48.60;99007.97;5063159;28;19952;-91
2024/03/27 09:54:25;;;;;;;;;;;;;;;19.19;45.48;99010.69;5064761;28;20016;-90
2024/03/27 09:56:50;;;;;;;;;;;;;;;19.19;46.03;99013.41;5059578;28;19917;-88
2024/03/27 09:59:16;;;;;;;;;;;;;;;19.19;46.14;99010.69;5063282;28;19944;-89
2024/03/27 10:01:42;;;;;;;;;;;;;;;19.23;45.79;99019.75;5060690;28;20292;-90
2024/03/27 10:04:08;;;;;;;;;;;;;;;19.27;44.56;99004.34;5059736;28;20638;-88
2024/03/27 10:06:34;;;;;;;;;;;;;;;19.31;44.15;99005.22;5067868;28;19970;-89
2024/03/27 10:08:59;;;;;;;;;;;;;;;19.38;44.99;99005.38;5063123;28;19920;-88
2024/03/27 10:11:25;;;;;;;;;;;;;;;19.52;45.38;99000.31;5060988;28;20031;-89
2024/03/27 10:13:50;;;;;;;;;;;;;;;19.63;43.72;98992.47;5063293;28;19924;-89
2024/03/27 10:16:15;;;;;;;;;;;;;;;19.78;44.00;99002.56;5061100;28;19956;-90
2024/03/27 10:18:40;;;;;;;;;;;;;;;19.79;42.38;98995.19;5060359;28;19977;-89
2024/03/27 10:21:06;;;;;;;;;;;;;;;19.84;43.15;98990.28;5055444;28;19916;-88
2024/03/27 10:23:31;;;;;;;;;;;;;;;19.92;42.21;98999.38;5057194;28;19921;-88
2024/03/27 10:26:01;;;;;;;;;;;;;;;20.03;43.71;99000.44;5058594;28;19982;-89
2024/03/27 10:28:26;;;;;;;;;;;;;;;20.10;43.46;98984.25;5070786;28;19925;-87
2024/03/27 10:30:57;;;;;;;;;;;;;;;20.22;43.59;98992.31;5060193;28;19946;-88
2024/03/27 10:33:22;;;;;;;;;;;;;;;20.34;43.85;98998.78;5059253;28;19939;-88
2024/03/27 10:35:50;;;;;;;;;;;;;;;20.49;43.76;98995.28;5063439;28;20288;-88
2024/03/27 10:38:16;;;;;;;;;;;;;;;20.60;43.94;98998.97;5059979;28;19921;-89
2024/03/27 10:40:43;;;;;;;;;;;;;;;20.72;44.41;99004.31;5075092;28;20030;-89
2024/03/27 10:43:21;;;;;;;;;;;;;;;20.83;44.33;99001.03;5062425;28;19923;-90
2024/03/27 10:45:48;;;;;;;;;;;;;;;20.92;44.34;98996.91;5057895;28;19925;-89
2024/03/27 10:48:16;;;;;;;;;;;;;;;21.04;44.26;98999.50;5063347;28;20320;-89
2024/03/27 10:50:42;;;;;;;;;;;;;;;21.16;43.93;99001.25;5062483;28;19924;-89
2024/03/27 10:53:07;;;;;;;;;;;;;;;21.29;44.84;98997.25;5064733;28;19926;-88
2024/03/27 10:55:36;;;;;;;;;;;;;;;21.45;43.98;98997.16;5071206;28;19952;-89
2024/03/27 10:58:03;;;;;;;;;;;;;;;21.55;44.21;98999.28;5065700;28;19942;-88
2024/03/27 11:00:28;;;;;;;;;;;;;;;21.63;43.83;98987.34;5062711;28;19917;-89
2024/03/27 11:02:53;;;;;;;;;;;;;;;21.78;44.32;98990.31;5070948;28;19938;-88
2024/03/27 11:05:19;;;;;;;;;;;;;;;21.90;44.66;98985.44;5064368;28;19929;-89
2024/03/27 11:07:45;;;;;;;;;;;;;;;21.99;43.82;98982.44;5066848;28;19916;-89
2024/03/27 11:10:20;;;;;;;;;;;;;;;22.13;44.32;98984.63;5057345;28;19920;-89
2024/03/27 11:12:48;;;;;;;;;;;;;;;22.25;43.55;98971.53;5071900;28;19920;-89
2024/03/27 11:15:14;;;;;;;;;;;;;;;22.36;43.28;98974.44;5062296;28;19924;-90
2024/03/27 11:17:39;;;;;;;;;;;;;;;22.47;43.52;98964.44;5061469;28;19924;-88
2024/03/27 11:20:05;;;;;;;;;;;;;;;22.58;42.92;98968.09;5062719;28;19924;-88
2024/03/27 11:22:31;;;;;;;;;;;;;;;22.69;42.79;98960.03;5059136;28;19920;-89
2024/03/27 11:24:56;;;;;;;;;;;;;;;22.80;42.84;98954.69;5059028;28;19920;-89
2024/03/27 11:27:25;;;;;;;;;;;;;;;22.93;43.35;98953.31;5064823;28;20560;-89
2024/03/27 11:29:56;;;;;;;;;;;;;;;23.01;42.67;98951.47;5069139;28;19920;-89
2024/03/27 11:32:22;;;;;;;;;;;;;;;23.04;41.77;98954.22;5067143;28;20377;-89
2024/03/27 11:34:47;;;;;;;;;;;;;;;23.04;42.12;98951.50;5068710;28;19924;-89
2024/03/27 11:37:12;;;;;;;;;;;;;;;22.96;40.91;98954.50;5061875;28;20002;-89
2024/03/27 11:39:38;;;;;;;;;;;;;;;22.92;41.65;98954.47;5060571;28;19971;-88
2024/03/27 11:42:03;;;;;;;;;;;;;;;22.91;40.33;98955.63;5060902;28;19923;-87
2024/03/27 11:44:28;;;;;;;;;;;;;;;22.88;41.32;98956.38;5063118;28;19921;-89
2024/03/27 11:46:53;;;;;;;;;;;;;;;22.92;41.07;98952.53;5060936;28;20011;-88
2024/03/27 11:49:19;;;;;;;;;;;;;;;23.01;42.00;98948.72;5065643;28;19928;-90
2024/03/27 11:51:44;;;;;;;;;;;;;;;23.05;41.32;98953.06;5064796;28;19920;-88
2024/03/27 11:54:09;;;;;;;;;;;;;;;23.03;39.90;98957.31;5061598;28;19964;-88
2024/03/27 11:56:36;;;;;;;;;;;;;;;23.07;40.89;98963.59;5060197;28;19923;-90
2024/03/27 11:59:02;;;;;;;;;;;;;;;23.17;40.94;98974.66;5065935;28;20564;-90
2024/03/27 12:01:28;;;;;;;;;;;;;;;23.26;40.72;98965.34;5061590;28;19920;-89
2024/03/27 12:03:54;;;;;;;;;;;;;;;23.27;38.31;98966.91;5063576;28;19970;-89
2024/03/27 12:06:19;;;;;;;;;;;;;;;23.23;40.25;98958.69;5067465;28;19925;-90
2024/03/27 12:08:47;;;;;;;;;;;;;;;23.28;40.41;98950.16;5070480;28;20430;-90
2024/03/27 12:11:13;;;;;;;;;;;;;;;23.36;39.51;98942.81;5062222;28;19916;-88
2024/03/27 12:13:38;;;;;;;;;;;;;;;23.43;39.98;98942.88;5063038;28;20300;-90
2024/03/27 12:16:07;;;;;;;;;;;;;;;23.52;39.81;98940.63;5064795;28;19920;-89
2024/03/27 12:18:32;;;;;;;;;;;;;;;23.61;40.04;98935.63;5064218;28;19966;-90
2024/03/27 12:20:58;;;;;;;;;;;;;;;23.65;39.31;98933.69;5064151;28;19920;-89
2024/03/27 12:23:23;;;;;;;;;;;;;;;23.67;38.61;98920.44;5070096;28;20011;-90
2024/03/27 12:25:49;;;;;;;;;;;;;;;23.74;40.07;98914.25;5062077;28;20407;-90
2024/03/27 12:28:16;;;;;;;;;;;;;;;23.71;39.40;98913.06;5065055;28;20314;-90
2024/03/27 12:30:41;;;;;;;;;;;;;;;23.72;39.29;98905.66;5066032;28;19924;-91
2024/03/27 12:33:06;;;;;;;;;;;;;;;23.71;40.17;98904.84;5063592;28;20404;-89
2024/03/27 12:35:32;;;;;;;;;;;;;;;23.77;39.83;98900.59;5059645;28;19916;-90
2024/03/27 12:37:57;;;;;;;;;;;;;;;23.87;40.00;98904.53;5065446;28;19921;-89
2024/03/27 12:40:22;;;;;;;;;;;;;;;23.95;39.98;98903.44;5062304;28;19920;-90